Time;durP1;ratioP1;P1;durP2;ratioP2;P2;SDS_P1;SDS_P2;PMS_P1;PMS_P2;Temp;Humidity;BMP_temperature;BMP_pressure;BME280_temperature;BME280_humidity;BME280_pressure;Samples;Min_cycle;Max_cycle;Signal;HPM_P1;HPM_P2
2021/07/18 00:01:10;;;;;;;8.55;2.90;;;19.60;90.80;;;;;;5012713;28;20495;-67
2021/07/18 00:03:36;;;;;;;5.38;2.20;;;19.60;90.90;;;;;;5006430;28;20057;-68
2021/07/18 00:06:02;;;;;;;7.95;2.67;;;19.60;90.80;;;;;;4992931;28;20156;-69
2021/07/18 00:08:27;;;;;;;6.18;2.08;;;19.50;90.90;;;;;;4991674;28;20033;-69
2021/07/18 00:10:54;;;;;;;7.63;2.15;;;19.50;90.80;;;;;;4992788;28;20038;-68
2021/07/18 00:13:20;;;;;;;5.10;2.40;;;19.50;90.80;;;;;;4992969;28;20485;-69
2021/07/18 00:15:47;;;;;;;5.38;2.30;;;19.50;91.00;;;;;;4992721;28;20038;-68
2021/07/18 00:18:13;;;;;;;8.00;2.40;;;19.50;91.10;;;;;;4991706;28;20034;-68
2021/07/18 00:20:39;;;;;;;8.27;2.78;;;19.50;90.90;;;;;;4996361;28;20038;-67
2021/07/18 00:23:05;;;;;;;3.85;2.30;;;19.40;91.00;;;;;;5011974;28;20033;-68
2021/07/18 00:25:32;;;;;;;5.22;2.60;;;19.50;91.00;;;;;;5012059;28;20040;-69
2021/07/18 00:27:59;;;;;;;6.57;2.67;;;19.40;91.10;;;;;;5010114;28;20041;-68
2021/07/18 00:30:25;;;;;;;8.77;2.28;;;19.40;91.10;;;;;;5012079;28;20425;-67
2021/07/18 00:32:51;;;;;;;7.05;2.63;;;19.40;91.20;;;;;;5011883;28;20034;-68
2021/07/18 00:35:17;;;;;;;7.07;2.40;;;19.40;91.20;;;;;;5012114;28;20408;-68
2021/07/18 00:37:42;;;;;;;4.85;2.42;;;19.30;91.20;;;;;;5010711;28;20034;-66
2021/07/18 00:40:09;;;;;;;12.60;2.83;;;19.30;91.40;;;;;;5011926;28;20523;-68
2021/07/18 00:42:35;;;;;;;8.63;2.47;;;19.30;91.30;;;;;;4994730;28;20479;-68
2021/07/18 00:45:01;;;;;;;4.63;2.05;;;19.30;91.30;;;;;;5011775;28;20030;-68
2021/07/18 00:47:27;;;;;;;5.68;2.53;;;19.30;91.30;;;;;;5005845;28;20030;-68
2021/07/18 00:49:53;;;;;;;5.40;2.45;;;19.30;91.30;;;;;;5005183;28;20077;-68
2021/07/18 00:52:19;;;;;;;7.63;2.38;;;19.30;91.40;;;;;;4996011;28;20069;-68
2021/07/18 00:54:46;;;;;;;6.18;1.98;;;19.20;91.40;;;;;;4992797;28;20068;-67
2021/07/18 00:57:12;;;;;;;6.40;2.60;;;19.30;91.20;;;;;;5010970;28;20042;-67
2021/07/18 00:59:38;;;;;;;5.38;2.33;;;19.20;91.50;;;;;;5011625;28;20030;-65
2021/07/18 01:02:05;;;;;;;8.65;2.53;;;19.30;91.30;;;;;;5008553;28;20036;-68
2021/07/18 01:04:32;;;;;;;8.02;3.17;;;19.30;91.50;;;;;;5000615;28;20030;-68
2021/07/18 01:06:58;;;;;;;6.75;2.42;;;19.20;91.40;;;;;;4991135;28;20650;-67
2021/07/18 01:09:24;;;;;;;7.63;2.53;;;19.20;91.50;;;;;;4991140;28;20169;-69
2021/07/18 01:11:50;;;;;;;6.10;2.20;;;19.20;91.60;;;;;;4974415;28;20570;-65
2021/07/18 01:14:16;;;;;;;6.57;2.47;;;19.20;91.60;;;;;;4991561;28;20154;-66
2021/07/18 01:16:44;;;;;;;5.30;2.40;;;19.20;91.60;;;;;;4988568;28;20038;-66
2021/07/18 01:19:11;;;;;;;4.93;2.40;;;19.20;91.70;;;;;;4990971;28;20541;-67
2021/07/18 01:21:39;;;;;;;7.32;2.58;;;19.10;91.70;;;;;;5002547;28;20075;-68
2021/07/18 01:24:05;;;;;;;4.45;2.13;;;19.10;91.80;;;;;;5011018;28;20037;-67
2021/07/18 01:26:32;;;;;;;8.20;2.70;;;19.10;91.80;;;;;;5010679;28;20021;-68
2021/07/18 01:28:58;;;;;;;9.02;2.83;;;19.10;91.70;;;;;;5010476;28;20038;-68
2021/07/18 01:31:24;;;;;;;5.82;2.47;;;19.10;91.80;;;;;;5011648;28;20025;-68
2021/07/18 01:33:49;;;;;;;5.32;2.85;;;19.10;91.80;;;;;;5012244;28;20032;-68
2021/07/18 01:36:15;;;;;;;4.53;2.13;;;19.10;91.90;;;;;;5011245;28;20061;-68
2021/07/18 01:38:40;;;;;;;6.95;2.33;;;19.10;91.80;;;;;;5009213;28;20436;-67
2021/07/18 01:41:06;;;;;;;5.40;2.30;;;19.10;92.00;;;;;;5009527;28;20100;-68
2021/07/18 01:43:32;;;;;;;6.90;2.65;;;19.00;91.90;;;;;;5011107;28;20397;-68
2021/07/18 01:45:58;;;;;;;5.45;2.08;;;19.10;92.00;;;;;;5011054;28;20415;-67
2021/07/18 01:48:25;;;;;;;5.32;2.47;;;19.00;92.30;;;;;;4997883;28;20077;-66
2021/07/18 01:50:51;;;;;;;6.38;2.30;;;19.00;92.20;;;;;;5007444;28;20428;-67
2021/07/18 01:53:16;;;;;;;7.95;2.47;;;19.00;92.40;;;;;;4991530;28;20489;-68
2021/07/18 01:55:42;;;;;;;4.03;2.00;;;18.90;92.60;;;;;;5000111;28;20030;-68
2021/07/18 01:58:08;;;;;;;7.90;2.40;;;18.90;92.70;;;;;;5009849;28;20420;-67
2021/07/18 02:00:33;;;;;;;7.00;2.47;;;18.90;92.70;;;;;;5010886;28;20035;-66
2021/07/18 02:02:59;;;;;;;8.15;2.60;;;18.90;92.70;;;;;;5008591;28;20037;-68
2021/07/18 02:05:25;;;;;;;5.45;2.35;;;18.90;92.70;;;;;;4992669;28;20037;-68
2021/07/18 02:07:51;;;;;;;7.38;2.55;;;18.90;92.70;;;;;;4990270;28;20026;-68
2021/07/18 02:10:19;;;;;;;5.53;2.13;;;18.90;92.60;;;;;;4991393;28;20101;-68
2021/07/18 02:12:46;;;;;;;6.13;2.40;;;18.90;92.80;;;;;;4991205;28;20038;-68
2021/07/18 02:15:16;;;;;;;7.40;2.58;;;18.90;92.70;;;;;;4991480;28;20037;-68
2021/07/18 02:17:41;;;;;;;5.43;2.33;;;18.90;92.80;;;;;;4987568;28;20600;-68
2021/07/18 02:20:11;;;;;;;5.38;2.45;;;18.90;92.80;;;;;;4991286;28;20125;-68
2021/07/18 02:22:44;;;;;;;7.60;2.40;;;18.90;92.70;;;;;;5010733;28;20096;-68
2021/07/18 02:25:11;;;;;;;6.88;2.72;;;18.90;92.90;;;;;;5010645;28;20034;-66
2021/07/18 02:27:37;;;;;;;6.38;2.28;;;18.80;93.10;;;;;;4991858;28;20033;-68
2021/07/18 02:30:08;;;;;;;10.48;2.67;;;18.80;93.10;;;;;;5010775;28;20488;-68
2021/07/18 02:32:35;;;;;;;6.13;2.22;;;18.80;93.00;;;;;;5010845;28;20041;-67
2021/07/18 02:35:02;;;;;;;8.35;2.33;;;18.90;92.90;;;;;;5010715;28;20030;-67
2021/07/18 02:37:27;;;;;;;5.18;2.03;;;18.90;92.90;;;;;;5009543;28;20044;-68
2021/07/18 02:39:53;;;;;;;6.45;2.17;;;18.90;92.80;;;;;;5010534;28;20472;-68
2021/07/18 02:42:19;;;;;;;4.57;2.50;;;18.90;92.90;;;;;;5006648;28;20076;-68
2021/07/18 02:44:44;;;;;;;4.68;2.20;;;18.90;92.80;;;;;;5010499;28;20148;-67
2021/07/18 02:47:10;;;;;;;8.00;2.28;;;18.80;93.00;;;;;;5006376;28;20034;-68
2021/07/18 02:49:36;;;;;;;8.25;2.53;;;18.80;92.90;;;;;;5001825;28;20018;-68
2021/07/18 02:52:03;;;;;;;5.22;2.60;;;18.80;92.90;;;;;;5000983;28;20408;-68
2021/07/18 02:54:29;;;;;;;4.55;2.38;;;18.90;92.90;;;;;;4994886;28;20026;-67
2021/07/18 02:56:55;;;;;;;6.68;2.40;;;18.90;92.90;;;;;;4993962;28;20053;-66
2021/07/18 02:59:20;;;;;;;4.82;2.47;;;18.90;92.90;;;;;;4993702;28;20065;-68
2021/07/18 03:01:46;;;;;;;5.13;2.08;;;18.80;92.90;;;;;;4991505;28;20030;-68
2021/07/18 03:04:12;;;;;;;4.20;2.00;;;18.80;92.70;;;;;;5002420;28;20045;-68
2021/07/18 03:06:37;;;;;;;6.35;2.38;;;18.80;93.10;;;;;;5013269;28;20034;-68
2021/07/18 03:09:03;;;;;;;7.20;2.63;;;18.80;93.00;;;;;;5012748;28;20076;-68
2021/07/18 03:11:29;;;;;;;7.10;2.70;;;18.80;93.10;;;;;;5013544;28;20168;-68
2021/07/18 03:13:54;;;;;;;5.57;2.22;;;18.70;93.30;;;;;;5013478;28;20034;-68
2021/07/18 03:16:20;;;;;;;5.05;2.10;;;18.70;93.30;;;;;;5013030;28;20513;-68
2021/07/18 03:18:46;;;;;;;8.32;3.78;;;18.70;93.10;;;;;;5013002;28;20147;-67
2021/07/18 03:21:11;;;;;;;5.38;2.50;;;18.70;93.20;;;;;;5006069;28;20393;-68
2021/07/18 03:23:37;;;;;;;6.40;2.42;;;18.70;93.50;;;;;;4994010;28;20645;-68
2021/07/18 03:26:03;;;;;;;8.73;2.80;;;18.70;93.50;;;;;;4993962;28;20027;-67
2021/07/18 03:28:28;;;;;;;9.95;3.03;;;18.70;93.30;;;;;;4992671;28;20034;-68
2021/07/18 03:30:56;;;;;;;6.78;2.67;;;18.60;93.50;;;;;;4993784;28;20376;-67
2021/07/18 03:33:22;;;;;;;5.60;2.42;;;18.60;93.50;;;;;;4993638;28;20030;-67
2021/07/18 03:35:47;;;;;;;3.97;2.45;;;18.70;93.40;;;;;;4993704;28;20037;-68
2021/07/18 03:38:13;;;;;;;4.70;2.30;;;18.60;93.50;;;;;;4992793;28;20030;-67
2021/07/18 03:40:39;;;;;;;6.50;2.28;;;18.60;93.40;;;;;;4989618;28;20812;-67
2021/07/18 03:43:05;;;;;;;6.93;2.75;;;18.60;93.50;;;;;;4976022;28;20030;-66
2021/07/18 03:45:31;;;;;;;6.90;2.50;;;18.60;93.50;;;;;;4993304;28;20041;-67
2021/07/18 03:47:56;;;;;;;8.02;2.33;;;18.60;93.40;;;;;;4998051;28;20448;-66
2021/07/18 03:50:22;;;;;;;9.95;3.17;;;18.60;93.40;;;;;;5010496;28;20030;-68
2021/07/18 03:52:48;;;;;;;4.15;2.00;;;18.60;93.50;;;;;;4993561;28;20038;-68
2021/07/18 03:55:14;;;;;;;5.00;2.45;;;18.70;93.30;;;;;;4997769;28;20030;-68
2021/07/18 03:57:40;;;;;;;10.52;3.08;;;18.70;93.30;;;;;;5011614;28;20484;-68
2021/07/18 04:00:06;;;;;;;6.25;2.65;;;18.70;93.20;;;;;;5012678;28;20488;-68
2021/07/18 04:02:32;;;;;;;6.45;2.80;;;18.70;93.40;;;;;;5009842;28;20109;-68
2021/07/18 04:04:58;;;;;;;7.65;3.20;;;18.70;93.30;;;;;;4998147;28;20109;-68
2021/07/18 04:07:23;;;;;;;6.88;2.53;;;18.70;93.30;;;;;;4991930;28;20483;-68
2021/07/18 04:09:49;;;;;;;7.28;2.42;;;18.70;93.50;;;;;;4993137;28;20433;-67
2021/07/18 04:12:15;;;;;;;6.28;2.90;;;18.70;93.60;;;;;;4993096;28;20121;-68
2021/07/18 04:14:40;;;;;;;8.30;2.60;;;18.70;93.60;;;;;;4992989;28;20030;-67
2021/07/18 04:17:06;;;;;;;6.00;2.55;;;18.70;93.40;;;;;;4992372;28;20065;-68
2021/07/18 04:19:32;;;;;;;4.45;2.53;;;18.80;93.40;;;;;;4992878;28;20033;-68
2021/07/18 04:21:57;;;;;;;5.95;2.78;;;18.80;93.40;;;;;;5007051;28;20038;-67
2021/07/18 04:24:23;;;;;;;7.18;3.17;;;18.80;93.60;;;;;;5012305;28;20045;-68
2021/07/18 04:26:49;;;;;;;10.30;3.33;;;18.90;93.50;;;;;;5011649;28;20030;-68
2021/07/18 04:29:15;;;;;;;9.52;3.50;;;18.80;93.60;;;;;;5011104;28;20111;-67
2021/07/18 04:31:40;;;;;;;5.78;2.97;;;18.90;93.80;;;;;;5012292;28;20113;-67
2021/07/18 04:34:06;;;;;;;7.07;3.15;;;18.90;93.60;;;;;;5012260;28;20030;-66
2021/07/18 04:36:32;;;;;;;6.15;2.83;;;18.80;93.50;;;;;;5011531;28;20130;-66
2021/07/18 04:38:59;;;;;;;9.50;3.00;;;18.80;93.50;;;;;;5011440;28;20109;-68
2021/07/18 04:41:25;;;;;;;5.32;3.03;;;18.80;93.60;;;;;;5007870;28;20076;-68
2021/07/18 04:43:50;;;;;;;6.30;2.90;;;18.80;93.60;;;;;;5011827;28;20095;-68
2021/07/18 04:46:16;;;;;;;7.28;2.60;;;18.80;93.70;;;;;;5010474;28;20416;-67
2021/07/18 04:48:42;;;;;;;5.43;2.70;;;18.80;93.60;;;;;;5000285;28;20033;-68
2021/07/18 04:51:07;;;;;;;6.53;2.65;;;18.80;93.50;;;;;;5006088;28;20428;-66
2021/07/18 04:53:33;;;;;;;5.35;2.20;;;18.80;93.50;;;;;;4992207;28;20076;-67
2021/07/18 04:55:59;;;;;;;6.18;2.90;;;18.80;93.60;;;;;;5002705;28;20048;-67
2021/07/18 04:58:24;;;;;;;6.32;2.30;;;18.90;93.50;;;;;;5010382;28;20033;-66
2021/07/18 05:00:50;;;;;;;8.38;2.80;;;18.90;93.40;;;;;;5011670;28;20061;-68
2021/07/18 05:03:16;;;;;;;6.43;2.70;;;19.00;93.60;;;;;;5008526;28;20048;-68
2021/07/18 05:05:42;;;;;;;7.18;2.65;;;18.90;93.50;;;;;;4991758;28;20036;-68
2021/07/18 05:08:07;;;;;;;6.50;2.30;;;19.00;93.50;;;;;;4990742;28;20034;-68
2021/07/18 05:10:33;;;;;;;4.97;2.42;;;19.00;93.50;;;;;;4991507;28;20097;-67
2021/07/18 05:12:59;;;;;;;5.75;2.10;;;19.10;93.30;;;;;;4991708;28;20033;-67
2021/07/18 05:15:27;;;;;;;8.18;2.50;;;19.20;93.40;;;;;;4974346;28;20032;-67
2021/07/18 05:17:58;;;;;;;6.22;2.47;;;19.10;93.40;;;;;;4990389;28;20080;-68
2021/07/18 05:20:25;;;;;;;7.18;2.42;;;19.10;93.40;;;;;;4991892;28;20039;-68
2021/07/18 05:22:51;;;;;;;9.65;2.60;;;19.10;93.50;;;;;;4991646;28;20122;-68
2021/07/18 05:25:17;;;;;;;6.78;2.60;;;19.10;93.60;;;;;;4991375;28;20476;-68
2021/07/18 05:27:43;;;;;;;5.50;2.53;;;19.10;93.60;;;;;;4990605;28;20034;-68
2021/07/18 05:30:10;;;;;;;6.75;2.47;;;19.20;93.60;;;;;;4991534;28;20030;-68
2021/07/18 05:32:37;;;;;;;4.95;2.33;;;19.20;93.50;;;;;;4991667;28;20085;-68
2021/07/18 05:35:07;;;;;;;5.68;2.70;;;19.30;93.40;;;;;;4991558;28;20096;-68
2021/07/18 05:37:33;;;;;;;6.10;3.15;;;19.30;93.30;;;;;;4990310;28;20057;-67
2021/07/18 05:39:58;;;;;;;10.10;3.13;;;19.40;93.30;;;;;;4991256;28;20041;-68
2021/07/18 05:42:24;;;;;;;5.28;2.50;;;19.40;93.20;;;;;;4988723;28;20101;-68
2021/07/18 05:44:50;;;;;;;8.82;3.05;;;19.40;93.30;;;;;;4991220;28;20030;-68
2021/07/18 05:47:16;;;;;;;4.45;2.35;;;19.50;93.30;;;;;;4995980;28;20018;-67
2021/07/18 05:49:41;;;;;;;6.47;2.63;;;19.60;93.20;;;;;;5000231;28;20049;-68
2021/07/18 05:52:07;;;;;;;5.15;2.40;;;19.70;92.90;;;;;;4997174;28;20422;-67
2021/07/18 05:54:34;;;;;;;4.70;2.25;;;19.80;92.80;;;;;;4991092;28;20122;-67
2021/07/18 05:57:00;;;;;;;6.47;3.03;;;19.80;92.70;;;;;;5006684;28;20034;-66
2021/07/18 05:59:26;;;;;;;5.97;2.63;;;19.80;92.60;;;;;;5010692;28;20053;-67
2021/07/18 06:01:52;;;;;;;4.70;2.58;;;19.80;92.60;;;;;;5006310;28;20113;-68
2021/07/18 06:04:17;;;;;;;5.63;2.50;;;19.80;92.50;;;;;;5001656;28;20061;-68
2021/07/18 06:06:43;;;;;;;7.03;2.60;;;19.80;92.50;;;;;;4990777;28;20023;-68
2021/07/18 06:09:09;;;;;;;7.05;2.70;;;19.90;92.50;;;;;;4990357;28;20026;-67
2021/07/18 06:11:34;;;;;;;5.18;2.67;;;19.90;92.40;;;;;;4971291;28;20029;-66
2021/07/18 06:14:00;;;;;;;4.85;2.38;;;19.90;92.30;;;;;;4991238;28;20038;-68
2021/07/18 06:16:26;;;;;;;7.13;2.20;;;19.90;92.20;;;;;;4990685;28;20089;-67
2021/07/18 06:18:52;;;;;;;6.78;2.70;;;19.90;92.00;;;;;;4990514;28;20480;-68
2021/07/18 06:21:18;;;;;;;9.25;3.15;;;19.90;91.90;;;;;;4999971;28;20042;-68
2021/07/18 06:23:45;;;;;;;4.10;2.42;;;19.90;91.90;;;;;;5007712;28;20069;-68
2021/07/18 06:26:11;;;;;;;4.95;2.17;;;19.90;92.00;;;;;;5011943;28;20026;-67
2021/07/18 06:28:37;;;;;;;7.28;2.50;;;20.00;91.80;;;;;;5011164;28;20033;-67
2021/07/18 06:31:03;;;;;;;6.25;2.65;;;20.00;91.70;;;;;;5014446;28;20033;-68
2021/07/18 06:33:28;;;;;;;8.70;2.60;;;20.00;91.60;;;;;;5014286;28;20034;-67
2021/07/18 06:35:54;;;;;;;9.13;3.20;;;20.00;91.40;;;;;;5013843;28;20026;-67
2021/07/18 06:38:20;;;;;;;8.10;2.80;;;20.00;91.40;;;;;;5013405;28;20113;-68
2021/07/18 06:40:45;;;;;;;4.95;2.50;;;20.10;91.40;;;;;;5014428;28;20027;-67
2021/07/18 06:43:11;;;;;;;6.15;2.30;;;20.10;91.50;;;;;;5014240;28;20044;-68
2021/07/18 06:45:37;;;;;;;4.47;2.38;;;20.10;91.30;;;;;;5014086;28;20034;-68
2021/07/18 06:48:03;;;;;;;5.15;2.50;;;20.20;91.30;;;;;;5002871;28;20031;-68
2021/07/18 06:50:29;;;;;;;8.65;2.80;;;20.30;91.20;;;;;;5011458;28;20026;-68
2021/07/18 06:52:54;;;;;;;6.65;2.55;;;20.30;91.00;;;;;;4994123;28;20066;-68
2021/07/18 06:55:20;;;;;;;8.85;3.17;;;20.30;91.10;;;;;;4999598;28;20052;-67
2021/07/18 06:57:48;;;;;;;6.40;2.72;;;20.30;90.90;;;;;;5012701;28;20029;-67
2021/07/18 07:00:14;;;;;;;5.82;2.08;;;20.40;90.90;;;;;;5013792;28;20107;-68
2021/07/18 07:02:40;;;;;;;6.00;2.42;;;20.40;90.80;;;;;;5010847;28;20037;-68
2021/07/18 07:05:06;;;;;;;6.15;2.15;;;20.50;90.70;;;;;;4998062;28;20030;-67
2021/07/18 07:07:32;;;;;;;3.67;1.83;;;20.50;90.60;;;;;;4992818;28;20022;-67
2021/07/18 07:09:58;;;;;;;9.13;2.47;;;20.50;90.50;;;;;;4994044;28;20052;-68
2021/07/18 07:12:24;;;;;;;5.25;2.17;;;20.50;90.40;;;;;;4993872;28;20045;-68
2021/07/18 07:14:50;;;;;;;4.95;2.45;;;20.50;90.30;;;;;;4993868;28;20483;-68
2021/07/18 07:17:16;;;;;;;6.38;2.50;;;20.60;90.30;;;;;;4990050;28;20053;-68
2021/07/18 07:19:42;;;;;;;3.75;1.88;;;20.60;90.10;;;;;;4993578;28;20038;-67
2021/07/18 07:22:08;;;;;;;5.63;2.40;;;20.70;90.00;;;;;;5009391;28;20387;-68
2021/07/18 07:24:34;;;;;;;8.90;2.40;;;20.70;89.70;;;;;;5013405;28;20030;-68
2021/07/18 07:26:59;;;;;;;5.25;2.75;;;20.70;89.40;;;;;;5012935;28;20033;-68
2021/07/18 07:29:25;;;;;;;4.32;2.20;;;20.80;88.90;;;;;;5011044;28;20033;-68
2021/07/18 07:31:51;;;;;;;7.38;3.17;;;20.80;88.70;;;;;;5013594;28;20496;-68
2021/07/18 07:34:17;;;;;;;5.35;2.70;;;20.80;89.10;;;;;;5013334;28;20030;-66
2021/07/18 07:36:43;;;;;;;5.15;2.85;;;20.90;89.20;;;;;;5012768;28;20420;-68
2021/07/18 07:39:08;;;;;;;3.05;2.05;;;21.00;89.10;;;;;;5012386;28;20123;-68
2021/07/18 07:41:34;;;;;;;4.53;2.30;;;21.00;88.60;;;;;;5013110;28;20030;-69
2021/07/18 07:44:00;;;;;;;7.22;2.63;;;21.00;87.70;;;;;;4995696;28;20103;-67
2021/07/18 07:46:27;;;;;;;6.03;2.17;;;21.10;87.80;;;;;;5001668;28;20651;-68
2021/07/18 07:48:52;;;;;;;4.18;2.00;;;21.10;86.90;;;;;;5004999;28;20030;-67
2021/07/18 07:51:19;;;;;;;4.60;2.00;;;21.10;86.10;;;;;;5001380;28;20029;-68
2021/07/18 07:53:45;;;;;;;3.08;1.83;;;21.10;86.10;;;;;;5010282;28;20034;-68
2021/07/18 07:56:11;;;;;;;6.38;2.20;;;21.10;86.40;;;;;;5001356;28;20088;-68
2021/07/18 07:58:37;;;;;;;4.93;2.10;;;21.10;85.80;;;;;;5002555;28;20022;-68
2021/07/18 08:01:03;;;;;;;5.82;2.10;;;21.20;85.60;;;;;;5012778;28;20487;-68
2021/07/18 08:03:29;;;;;;;5.15;1.98;;;21.20;85.90;;;;;;5003603;28;20041;-68
2021/07/18 08:05:55;;;;;;;3.38;1.75;;;21.20;85.40;;;;;;4994895;28;20030;-68
2021/07/18 08:08:20;;;;;;;5.13;1.70;;;21.30;85.80;;;;;;5012042;28;20061;-68
2021/07/18 08:10:46;;;;;;;5.53;2.00;;;21.30;85.80;;;;;;5007686;28;20097;-66
2021/07/18 08:13:12;;;;;;;4.82;2.20;;;21.40;85.40;;;;;;5008155;28;20084;-67
2021/07/18 08:15:38;;;;;;;3.53;1.88;;;21.40;85.10;;;;;;4992939;28;20030;-68
2021/07/18 08:18:04;;;;;;;3.92;2.22;;;21.50;85.10;;;;;;4988968;28;20534;-68
2021/07/18 08:20:30;;;;;;;4.60;2.13;;;21.50;85.00;;;;;;4990687;28;20096;-68
2021/07/18 08:22:56;;;;;;;4.68;2.13;;;21.60;84.70;;;;;;5009543;28;20551;-68
2021/07/18 08:25:24;;;;;;;3.63;1.58;;;21.70;84.90;;;;;;4992754;28;20146;-68
2021/07/18 08:27:50;;;;;;;2.97;1.80;;;21.80;84.60;;;;;;4994001;28;20022;-68
2021/07/18 08:30:16;;;;;;;3.78;1.73;;;22.00;84.40;;;;;;5012430;28;20022;-68
2021/07/18 08:32:42;;;;;;;3.33;1.77;;;22.20;84.40;;;;;;5011930;28;20040;-69
2021/07/18 08:35:09;;;;;;;5.40;2.10;;;22.30;83.90;;;;;;5012219;28;20544;-68
2021/07/18 08:37:35;;;;;;;3.70;1.83;;;22.30;83.30;;;;;;4996336;28;20117;-68
2021/07/18 08:40:03;;;;;;;7.18;2.75;;;22.40;83.40;;;;;;4992402;28;20034;-67
2021/07/18 08:42:29;;;;;;;5.55;2.05;;;22.30;83.30;;;;;;4993240;28;20037;-68
2021/07/18 08:44:57;;;;;;;3.83;1.50;;;22.20;82.70;;;;;;4975123;28;20031;-66
2021/07/18 08:47:23;;;;;;;5.18;2.13;;;22.10;83.40;;;;;;4996674;28;20022;-68
2021/07/18 08:49:48;;;;;;;3.88;1.92;;;22.10;83.60;;;;;;5004526;28;20037;-68
2021/07/18 08:52:18;;;;;;;3.90;1.80;;;22.10;83.60;;;;;;4997247;28;20539;-68
2021/07/18 08:54:45;;;;;;;8.25;2.05;;;22.20;83.60;;;;;;5001279;28;20038;-68
2021/07/18 08:57:13;;;;;;;3.53;1.55;;;22.30;82.80;;;;;;4976259;28;20072;-68
2021/07/18 08:59:39;;;;;;;7.07;1.92;;;22.20;82.60;;;;;;5011588;28;20033;-67
2021/07/18 09:02:05;;;;;;;4.15;2.00;;;22.30;83.00;;;;;;5003223;28;20109;-68
2021/07/18 09:04:31;;;;;;;4.13;2.35;;;22.50;83.00;;;;;;4992058;28;20034;-67
2021/07/18 09:07:07;;;;;;;4.63;1.90;;;22.60;82.50;;;;;;4991624;28;20033;-68
2021/07/18 09:09:33;;;;;;;4.32;2.10;;;22.60;82.10;;;;;;4991794;28;20105;-67
2021/07/18 09:12:01;;;;;;;3.95;1.88;;;22.60;82.10;;;;;;5010003;28;20180;-68
2021/07/18 09:14:45;;;;;;;6.22;2.28;;;22.50;82.40;;;;;;5010740;28;20029;-68
2021/07/18 09:17:15;;;;;;;6.32;2.22;;;22.50;82.40;;;;;;5009939;28;20038;-68
2021/07/18 09:19:43;;;;;;;4.75;2.15;;;22.50;81.70;;;;;;5010763;28;20028;-68
2021/07/18 09:22:21;;;;;;;6.03;1.98;;;22.60;81.90;;;;;;5010890;28;20523;-68
2021/07/18 09:24:50;;;;;;;4.25;2.10;;;22.80;81.50;;;;;;5010719;28;20038;-68
2021/07/18 09:27:24;;;;;;;7.35;2.67;;;23.00;81.70;;;;;;5006046;28;20318;-67
2021/07/18 09:30:03;;;;;;;5.07;2.30;;;23.10;81.40;;;;;;4973188;28;20034;-68
2021/07/18 09:32:33;;;;;;;9.10;2.67;;;23.10;81.60;;;;;;4991238;28;20041;-68
2021/07/18 09:35:04;;;;;;;7.55;2.42;;;23.00;81.70;;;;;;4990715;28;20571;-69
2021/07/18 09:37:41;;;;;;;7.03;2.70;;;22.90;81.80;;;;;;4989594;28;20037;-68
2021/07/18 09:40:11;;;;;;;3.97;2.00;;;22.80;81.70;;;;;;4990706;28;20046;-68
2021/07/18 09:42:39;;;;;;;4.85;1.98;;;22.80;82.10;;;;;;5005837;28;20042;-67
2021/07/18 09:45:13;;;;;;;7.47;2.20;;;23.10;82.10;;;;;;4991068;28;20246;-68
2021/07/18 09:48:03;;;;;;;7.97;2.40;;;23.30;80.80;;;;;;4989423;28;20153;-67
2021/07/18 09:50:35;;;;;;;6.57;2.53;;;23.30;80.40;;;;;;4990903;28;20026;-67
2021/07/18 09:53:22;;;;;;;5.85;2.20;;;23.30;80.60;;;;;;4990855;28;20493;-68
2021/07/18 09:55:55;;;;;;;5.00;1.90;;;23.20;80.00;;;;;;4990345;28;20369;-68
2021/07/18 09:58:22;;;;;;;11.73;2.45;;;23.20;80.50;;;;;;4990120;28;20124;-67
2021/07/18 10:00:47;;;;;;;6.00;2.03;;;23.30;80.50;;;;;;4992355;28;20033;-68
2021/07/18 10:03:18;;;;;;;3.85;1.90;;;23.40;80.20;;;;;;5009453;28;20034;-67
2021/07/18 10:05:43;;;;;;;6.57;1.77;;;23.40;79.50;;;;;;5013532;28;20105;-68
2021/07/18 10:08:10;;;;;;;4.22;2.10;;;23.40;78.70;;;;;;5013349;28;20124;-68
2021/07/18 10:10:38;;;;;;;2.35;1.50;;;23.60;78.60;;;;;;4976640;28;1065561;-68
2021/07/18 10:13:05;;;;;;;4.57;1.80;;;23.70;78.70;;;;;;5015426;28;20030;-68
2021/07/18 10:15:32;;;;;;;5.70;2.00;;;23.80;78.80;;;;;;5014535;28;20053;-66
2021/07/18 10:17:58;;;;;;;5.13;1.83;;;23.80;78.40;;;;;;5011255;28;20229;-68
2021/07/18 10:20:24;;;;;;;4.35;1.83;;;23.80;76.40;;;;;;5014885;28;20540;-68
2021/07/18 10:22:53;;;;;;;4.55;1.90;;;23.70;76.50;;;;;;5014976;28;20169;-68
2021/07/18 10:25:19;;;;;;;6.68;2.03;;;23.70;77.00;;;;;;5014507;28;20042;-68
2021/07/18 10:27:46;;;;;;;6.90;1.98;;;23.80;76.60;;;;;;4993792;28;20026;-68
2021/07/18 10:30:14;;;;;;;6.53;1.55;;;23.80;76.30;;;;;;5014736;28;20476;-68
2021/07/18 10:32:41;;;;;;;4.35;1.70;;;23.80;77.30;;;;;;5015144;28;20052;-68
2021/07/18 10:35:10;;;;;;;4.93;1.85;;;23.90;77.50;;;;;;5014803;28;20376;-68
2021/07/18 10:37:42;;;;;;;3.67;1.67;;;23.90;77.00;;;;;;5013585;28;20088;-68
2021/07/18 10:40:13;;;;;;;2.90;1.65;;;23.90;76.80;;;;;;5014555;28;20540;-69
2021/07/18 10:42:39;;;;;;;3.80;1.40;;;24.00;77.20;;;;;;4997061;28;20057;-69
2021/07/18 10:45:26;;;;;;;4.05;1.40;;;24.10;76.20;;;;;;5014401;28;20032;-69
2021/07/18 10:48:06;;;;;;;4.75;1.70;;;24.20;75.90;;;;;;5005207;28;20058;-69
2021/07/18 10:50:50;;;;;;;3.87;1.47;;;24.20;76.20;;;;;;5011932;28;20058;-68
2021/07/18 10:53:21;;;;;;;2.45;1.13;;;24.20;74.50;;;;;;4995058;28;20034;-69
2021/07/18 10:55:47;;;;;;;4.45;2.00;;;24.30;75.70;;;;;;5003128;28;20564;-68
2021/07/18 10:58:39;;;;;;;5.22;1.73;;;24.40;75.80;;;;;;5013423;28;20030;-68
2021/07/18 11:01:11;;;;;;;2.88;1.48;;;24.60;76.30;;;;;;5013843;28;20062;-67
2021/07/18 11:03:38;;;;;;;4.30;2.00;;;24.60;73.60;;;;;;5007810;28;20034;-68
2021/07/18 11:06:28;;;;;;;2.45;1.30;;;24.70;73.90;;;;;;4976312;28;20027;-68
2021/07/18 11:09:06;;;;;;;6.38;1.50;;;24.70;73.30;;;;;;4993811;28;20030;-67
2021/07/18 11:11:57;;;;;;;3.42;1.50;;;24.70;73.70;;;;;;4993959;28;20038;-67
2021/07/18 11:14:34;;;;;;;3.85;1.40;;;24.70;74.10;;;;;;4994373;28;20077;-68
2021/07/18 11:17:06;;;;;;;4.13;1.63;;;24.90;73.70;;;;;;4990879;28;20057;-68
2021/07/18 11:19:35;;;;;;;3.45;1.63;;;24.90;73.90;;;;;;4994077;28;20105;-69
2021/07/18 11:22:12;;;;;;;2.88;1.27;;;25.00;73.00;;;;;;5009429;28;20370;-69
2021/07/18 11:24:57;;;;;;;2.53;1.20;;;25.00;72.30;;;;;;5013597;28;20042;-69
2021/07/18 11:27:34;;;;;;;6.18;2.47;;;25.20;75.60;;;;;;5010410;28;20427;-68
2021/07/18 11:30:03;;;;;;;5.75;1.13;;;25.30;70.70;;;;;;5013070;28;20431;-68
2021/07/18 11:32:31;;;;;;;2.80;1.10;;;25.60;72.70;;;;;;5013016;28;20038;-67
2021/07/18 11:34:59;;;;;;;2.60;1.42;;;26.20;70.80;;;;;;5013274;28;20473;-69
2021/07/18 11:37:27;;;;;;;3.75;1.42;;;27.50;66.70;;;;;;5012715;28;20068;-69
2021/07/18 11:40:00;;;;;;;2.45;1.23;;;29.70;63.50;;;;;;5013408;28;20038;-69
2021/07/18 11:42:27;;;;;;;4.38;1.27;;;31.90;54.80;;;;;;5013288;28;20026;-69
2021/07/18 11:44:53;;;;;;;1.65;1.00;;;33.70;48.10;;;;;;5013078;28;20026;-68
2021/07/18 11:47:23;;;;;;;1.83;1.13;;;35.40;45.70;;;;;;5007978;28;20037;-69
2021/07/18 11:49:51;;;;;;;2.15;1.23;;;36.50;41.60;;;;;;5005807;28;20379;-68
2021/07/18 11:52:19;;;;;;;2.05;1.52;;;36.90;40.80;;;;;;4998078;28;20027;-68
2021/07/18 11:54:45;;;;;;;1.63;1.02;;;37.50;39.60;;;;;;4994062;28;20045;-68
2021/07/18 11:57:16;;;;;;;2.40;1.33;;;37.60;39.50;;;;;;5012024;28;20030;-68
2021/07/18 11:59:44;;;;;;;2.30;1.30;;;36.50;39.60;;;;;;5013648;28;20026;-68
2021/07/18 12:02:12;;;;;;;4.57;1.30;;;36.20;38.80;;;;;;5010908;28;20057;-68
2021/07/18 12:04:38;;;;;;;4.03;1.48;;;35.80;39.80;;;;;;5001656;28;20030;-69
2021/07/18 12:07:09;;;;;;;2.92;1.10;;;35.50;40.10;;;;;;4993005;28;20064;-68
2021/07/18 12:09:42;;;;;;;2.53;1.38;;;35.40;39.90;;;;;;4993309;28;20044;-67
2021/07/18 12:12:10;;;;;;;1.80;1.17;;;35.00;40.10;;;;;;4993381;28;20045;-68
2021/07/18 12:14:37;;;;;;;4.18;1.60;;;35.20;40.80;;;;;;4993617;28;20376;-68
2021/07/18 12:17:06;;;;;;;2.40;1.15;;;35.20;39.20;;;;;;4992167;28;20065;-67
2021/07/18 12:19:34;;;;;;;3.15;1.27;;;34.40;42.10;;;;;;4992680;28;20030;-67
2021/07/18 12:22:04;;;;;;;1.63;0.98;;;33.70;42.30;;;;;;5007126;28;20033;-68
2021/07/18 12:24:30;;;;;;;;;;;33.90;43.20;;;;;;5012093;28;20037;-68
2021/07/18 12:26:58;;;;;;;2.78;1.50;;;34.70;42.30;;;;;;5011949;28;19905;-66
2021/07/18 12:29:25;;;;;;;2.13;1.10;;;34.30;41.20;;;;;;5009620;28;20097;-69
2021/07/18 12:31:51;;;;;;;4.22;1.60;;;33.70;42.40;;;;;;5012382;28;20021;-68
2021/07/18 12:34:19;;;;;;;2.30;1.27;;;32.90;44.40;;;;;;5012194;28;20048;-68
2021/07/18 12:36:52;;;;;;;3.92;1.20;;;32.20;46.60;;;;;;5011901;28;20022;-68
2021/07/18 12:39:19;;;;;;;2.35;1.23;;;31.90;47.20;;;;;;5011638;28;20100;-67
2021/07/18 12:41:45;;;;;;;2.45;1.15;;;31.90;46.50;;;;;;5012610;28;20026;-68
2021/07/18 12:44:16;;;;;;;3.28;1.65;;;31.70;47.60;;;;;;5012226;28;20132;-67
2021/07/18 12:46:43;;;;;;;4.93;1.83;;;31.50;46.80;;;;;;5008917;28;20112;-68
2021/07/18 12:49:12;;;;;;;2.53;1.30;;;31.40;48.40;;;;;;5002563;28;20038;-69